createdAt,value
2022-11-26T00:00:57.537Z,6.20
2022-11-26T00:02:14.933Z,6.20
2022-11-26T00:03:17.440Z,6.15
2022-11-26T00:04:19.095Z,6.21
2022-11-26T00:05:22.288Z,6.23
2022-11-26T00:06:40.513Z,6.29
2022-11-26T00:07:44.880Z,6.32
2022-11-26T00:08:46.570Z,6.35
2022-11-26T00:09:49.653Z,6.32
2022-11-26T00:10:53.388Z,6.38
2022-11-26T00:11:54.964Z,6.39
2022-11-26T00:12:57.583Z,6.41
2022-11-26T00:13:59.159Z,6.40
2022-11-26T00:15:14.660Z,6.40
2022-11-26T00:16:16.620Z,6.41
2022-11-26T00:17:19.774Z,6.42
2022-11-26T00:18:26.844Z,6.45
2022-11-26T00:19:28.571Z,6.49
2022-11-26T00:20:31.380Z,6.50
2022-11-26T00:21:36.074Z,6.52
2022-11-26T00:22:51.455Z,6.56
2022-11-26T00:23:54.321Z,6.56
2022-11-26T00:24:56.311Z,6.59
2022-11-26T00:26:01.390Z,6.60
2022-11-26T00:27:02.965Z,6.60
2022-11-26T00:28:22.894Z,6.60
2022-11-26T00:29:24.465Z,6.63
2022-11-26T00:30:28.002Z,6.64
2022-11-26T00:31:29.655Z,6.65
2022-11-26T00:32:31.516Z,6.65
2022-11-26T00:33:33.685Z,6.65
2022-11-26T00:34:35.488Z,6.62
2022-11-26T00:35:37.292Z,6.62
2022-11-26T00:36:38.878Z,6.61
2022-11-26T00:37:44.573Z,6.63
2022-11-26T00:38:49.709Z,6.64
2022-11-26T00:39:52.071Z,6.63
2022-11-26T00:40:53.722Z,6.62
2022-11-26T00:41:55.431Z,6.62
2022-11-26T00:43:01.452Z,6.62
2022-11-26T00:44:04.081Z,6.61
2022-11-26T00:45:15.532Z,6.60
2022-11-26T00:46:20.011Z,6.66
2022-11-26T00:47:21.609Z,6.68
2022-11-26T00:48:23.145Z,6.66
2022-11-26T00:49:24.763Z,6.68
2022-11-26T00:50:27.666Z,6.68
2022-11-26T00:51:29.385Z,6.67
2022-11-26T00:52:34.509Z,6.65
2022-11-26T00:53:36.153Z,6.68
2022-11-26T00:54:38.036Z,6.70
2022-11-26T00:57:22.756Z,6.71
2022-11-26T00:58:28.758Z,6.72
2022-11-26T00:59:30.328Z,6.72
2022-11-26T01:00:34.447Z,6.72
2022-11-26T01:01:37.589Z,6.73
2022-11-26T01:02:39.413Z,6.74
2022-11-26T01:03:43.003Z,6.73
2022-11-26T01:04:44.640Z,6.73
2022-11-26T01:05:53.270Z,6.72
2022-11-26T01:06:54.884Z,6.70
2022-11-26T01:08:00.327Z,6.67
2022-11-26T01:09:04.773Z,6.69
2022-11-26T01:10:14.320Z,6.70
2022-11-26T01:11:18.581Z,6.70
2022-11-26T01:12:20.164Z,6.70
2022-11-26T01:13:21.811Z,6.70
2022-11-26T01:14:23.568Z,6.71
2022-11-26T01:15:26.613Z,6.72
2022-11-26T01:16:30.892Z,6.73
2022-11-26T01:17:32.602Z,6.70
2022-11-26T01:18:35.165Z,6.73
2022-11-26T01:19:36.812Z,6.75
2022-11-26T01:20:38.358Z,6.78
2022-11-26T01:21:40.540Z,6.79
2022-11-26T01:22:42.103Z,6.79
2022-11-26T01:23:43.737Z,6.79
2022-11-26T01:24:45.512Z,6.78
2022-11-26T01:25:47.811Z,6.83
2022-11-26T01:26:49.406Z,6.83
2022-11-26T01:27:51.675Z,6.82
2022-11-26T01:28:54.405Z,6.82
2022-11-26T01:29:55.983Z,6.80
2022-11-26T01:30:57.802Z,6.82
2022-11-26T01:31:59.530Z,6.84
2022-11-26T01:33:01.239Z,6.83
2022-11-26T01:34:02.967Z,6.81
2022-11-26T01:35:05.014Z,6.81
2022-11-26T01:36:28.703Z,6.83
2022-11-26T01:37:30.276Z,6.83
2022-11-26T01:38:31.862Z,6.83
2022-11-26T01:39:33.405Z,6.83
2022-11-26T01:40:54.531Z,6.85
2022-11-26T01:42:36.313Z,6.86
2022-11-26T01:43:42.639Z,6.85
2022-11-26T01:44:44.408Z,6.88
2022-11-26T01:45:46.163Z,6.90
2022-11-26T01:46:48.852Z,6.89
2022-11-26T01:47:50.745Z,6.89
2022-11-26T01:48:53.798Z,6.90
2022-11-26T01:50:26.530Z,6.89
2022-11-26T01:51:29.115Z,6.92
2022-11-26T01:52:30.814Z,6.91
2022-11-26T01:53:38.835Z,6.92
2022-11-26T01:54:43.295Z,6.89
2022-11-26T01:55:44.844Z,6.91
2022-11-26T01:56:50.803Z,6.87
2022-11-26T01:57:52.797Z,6.94
2022-11-26T01:59:03.020Z,7.00
2022-11-26T02:00:05.470Z,7.01
2022-11-26T02:01:07.678Z,7.00
2022-11-26T02:02:09.876Z,7.03
2022-11-26T02:03:12.355Z,7.02
2022-11-26T02:04:20.041Z,7.03
2022-11-26T02:05:25.776Z,7.03
2022-11-26T02:06:33.463Z,7.03
2022-11-26T02:07:36.140Z,7.04
2022-11-26T02:08:38.434Z,7.12
2022-11-26T02:09:40.769Z,7.09
2022-11-26T02:10:42.547Z,7.11
2022-11-26T02:11:44.684Z,7.08
2022-11-26T02:12:46.248Z,7.18
2022-11-26T02:13:51.997Z,7.15
2022-11-26T02:14:54.215Z,7.22
2022-11-26T02:16:35.387Z,7.24
2022-11-26T02:17:46.162Z,7.27
2022-11-26T02:19:02.241Z,7.28
2022-11-26T02:20:21.920Z,7.31
2022-11-26T02:21:28.101Z,7.33
2022-11-26T02:22:51.438Z,7.34
2022-11-26T02:24:23.401Z,7.36
2022-11-26T02:25:57.425Z,7.36
2022-11-26T02:27:08.020Z,7.37
2022-11-26T02:28:15.877Z,7.40
2022-11-26T02:29:27.638Z,7.41
2022-11-26T02:30:36.386Z,7.44
2022-11-26T02:31:37.979Z,7.46
2022-11-26T02:33:11.569Z,7.49
2022-11-26T02:34:22.751Z,7.50
2022-11-26T02:35:39.193Z,7.52
2022-11-26T02:36:48.641Z,7.52
2022-11-26T02:38:02.756Z,7.52
2022-11-26T02:39:15.459Z,7.51
2022-11-26T02:40:17.492Z,7.53
2022-11-26T02:41:19.526Z,7.55
2022-11-26T02:42:34.070Z,7.55
2022-11-26T02:43:37.779Z,7.56
2022-11-26T02:44:43.141Z,7.57
2022-11-26T02:45:50.722Z,7.55
2022-11-26T02:47:02.838Z,7.52
2022-11-26T02:48:09.539Z,7.52
2022-11-26T02:49:14.494Z,7.52
2022-11-26T02:50:24.055Z,7.53
2022-11-26T02:51:31.989Z,7.54
2022-11-26T02:52:39.645Z,7.55
2022-11-26T02:53:43.157Z,7.54
2022-11-26T02:54:46.066Z,7.55
2022-11-26T02:56:01.282Z,7.54
2022-11-26T02:57:07.114Z,7.54
2022-11-26T02:58:08.935Z,7.54
2022-11-26T02:59:11.902Z,7.54
2022-11-26T03:00:15.745Z,7.54
2022-11-26T03:01:30.127Z,7.56
2022-11-26T03:02:36.609Z,7.55
2022-11-26T03:03:46.484Z,7.54
2022-11-26T03:04:53.124Z,7.53
2022-11-26T03:05:59.065Z,7.52
2022-11-26T03:07:04.493Z,7.54
2022-11-26T03:08:07.236Z,7.56
2022-11-26T03:09:09.008Z,7.54
2022-11-26T03:10:10.820Z,7.53
2022-11-26T03:11:12.672Z,7.52
2022-11-26T03:12:14.393Z,7.54
2022-11-26T03:13:16.008Z,7.57
2022-11-26T03:14:17.715Z,7.57
2022-11-26T03:15:19.520Z,7.58
2022-11-26T03:16:21.079Z,7.58
2022-11-26T03:17:22.869Z,7.58
2022-11-26T03:18:24.837Z,7.59
2022-11-26T03:19:26.507Z,7.58
2022-11-26T03:20:28.191Z,7.57
2022-11-26T03:21:32.008Z,7.56
2022-11-26T03:22:33.798Z,7.59
2022-11-26T03:23:35.615Z,7.57
2022-11-26T03:24:37.737Z,7.61
2022-11-26T03:25:39.519Z,7.60
2022-11-26T03:26:41.080Z,7.61
2022-11-26T03:27:42.658Z,7.63
2022-11-26T03:28:44.354Z,7.63
2022-11-26T03:29:45.998Z,7.64
2022-11-26T03:30:50.138Z,7.64
2022-11-26T03:31:51.989Z,7.62
2022-11-26T03:32:53.831Z,7.62
2022-11-26T03:33:55.434Z,7.61
2022-11-26T03:34:57.038Z,7.61
2022-11-26T03:35:58.602Z,7.59
2022-11-26T03:37:00.178Z,7.57
2022-11-26T03:38:01.875Z,7.56
2022-11-26T03:39:03.830Z,7.55
2022-11-26T03:40:07.043Z,7.54
2022-11-26T03:41:08.685Z,7.57
2022-11-26T03:42:10.253Z,7.55
2022-11-26T03:43:11.885Z,7.54
2022-11-26T03:44:14.369Z,7.54
2022-11-26T03:45:16.014Z,7.52
2022-11-26T03:46:17.909Z,7.45
2022-11-26T03:47:19.641Z,7.43
2022-11-26T03:48:21.518Z,7.43
2022-11-26T03:49:23.195Z,7.41
2022-11-26T03:50:24.757Z,7.39
2022-11-26T03:51:26.358Z,7.39
2022-11-26T03:52:27.977Z,7.37
2022-11-26T03:53:29.777Z,7.36
2022-11-26T03:54:31.415Z,7.34
2022-11-26T03:55:33.153Z,7.32
2022-11-26T03:56:34.754Z,7.27
2022-11-26T03:57:36.772Z,7.28
2022-11-26T03:58:38.379Z,7.28
2022-11-26T03:59:39.962Z,7.28
2022-11-26T04:00:41.698Z,7.26
2022-11-26T04:01:43.316Z,7.18
2022-11-26T04:02:45.050Z,7.11
2022-11-26T04:03:46.742Z,7.06
2022-11-26T04:04:48.509Z,7.02
2022-11-26T04:05:50.172Z,7.00
2022-11-26T04:06:51.871Z,6.97
2022-11-26T04:07:53.458Z,6.93
2022-11-26T04:08:55.137Z,6.89
2022-11-26T04:09:56.800Z,6.86
2022-11-26T04:10:58.333Z,6.80
2022-11-26T04:12:00.796Z,6.70
2022-11-26T04:13:02.365Z,6.68
2022-11-26T04:14:03.972Z,6.65
2022-11-26T04:15:06.074Z,6.60
2022-11-26T04:16:08.095Z,6.54
2022-11-26T04:17:09.669Z,6.47
2022-11-26T04:18:11.182Z,6.38
2022-11-26T04:19:12.828Z,6.33
2022-11-26T04:20:14.523Z,6.27
2022-11-26T04:21:16.107Z,6.19
2022-11-26T04:22:17.709Z,6.15
2022-11-26T04:23:19.899Z,6.10
2022-11-26T04:24:21.428Z,6.09
2022-11-26T04:25:23.060Z,6.07
2022-11-26T04:26:25.019Z,6.03
2022-11-26T04:27:26.565Z,6.00
2022-11-26T04:28:28.203Z,5.98
2022-11-26T04:29:29.819Z,5.88
2022-11-26T04:30:31.563Z,5.80
2022-11-26T04:31:33.220Z,5.74
2022-11-26T04:32:34.978Z,5.69
2022-11-26T04:33:36.580Z,5.66
2022-11-26T04:34:38.374Z,5.60
2022-11-26T04:35:40.218Z,5.54
2022-11-26T04:36:41.907Z,5.49
2022-11-26T04:37:43.628Z,5.46
2022-11-26T04:38:45.197Z,5.43
2022-11-26T04:39:46.798Z,5.39
2022-11-26T04:40:48.526Z,5.31
2022-11-26T04:41:51.033Z,5.21
2022-11-26T04:42:52.631Z,5.19
2022-11-26T04:43:54.203Z,5.17
2022-11-26T04:44:55.875Z,5.15
2022-11-26T04:45:57.527Z,5.08
2022-11-26T04:46:59.294Z,5.03
2022-11-26T04:48:00.865Z,4.99
2022-11-26T04:49:02.465Z,4.96
2022-11-26T04:50:04.463Z,4.93
2022-11-26T04:51:06.257Z,4.95
2022-11-26T04:52:08.241Z,4.93
2022-11-26T04:53:09.804Z,4.88
2022-11-26T04:54:13.204Z,4.88
2022-11-26T04:55:16.635Z,4.85
2022-11-26T04:56:18.249Z,4.81
2022-11-26T04:57:19.826Z,4.78
2022-11-26T04:58:21.961Z,4.75
2022-11-26T04:59:23.784Z,4.71
2022-11-26T05:00:25.718Z,4.66
2022-11-26T05:01:27.396Z,4.64
2022-11-26T05:02:29.203Z,4.66
2022-11-26T05:03:30.931Z,4.65
2022-11-26T05:04:32.565Z,4.63
2022-11-26T05:05:34.638Z,4.63
2022-11-26T05:06:36.303Z,4.59
2022-11-26T05:07:38.102Z,4.58
2022-11-26T05:08:39.690Z,4.54
2022-11-26T05:09:41.301Z,4.42
2022-11-26T05:10:42.991Z,4.46
2022-11-26T05:11:44.654Z,4.48
2022-11-26T05:12:46.346Z,4.45
2022-11-26T05:13:47.990Z,4.41
2022-11-26T05:14:49.576Z,4.39
2022-11-26T05:15:51.270Z,4.36
2022-11-26T05:16:52.926Z,4.32
2022-11-26T05:17:54.516Z,4.29
2022-11-26T05:18:56.419Z,4.27
2022-11-26T05:19:58.207Z,4.25
2022-11-26T05:20:59.830Z,4.22
2022-11-26T05:22:01.461Z,4.19
2022-11-26T05:23:03.278Z,4.16
2022-11-26T05:24:05.286Z,4.14
2022-11-26T05:25:07.207Z,4.13
2022-11-26T05:26:08.810Z,4.10
2022-11-26T05:27:10.346Z,4.09
2022-11-26T05:29:56.648Z,4.01
2022-11-26T05:30:59.965Z,4.00
2022-11-26T05:32:01.665Z,3.99
2022-11-26T05:33:03.467Z,3.95
2022-11-26T05:34:05.182Z,3.91
2022-11-26T05:35:07.069Z,3.86
2022-11-26T05:36:09.023Z,3.83
2022-11-26T05:37:10.725Z,3.80
2022-11-26T05:38:12.294Z,3.80
2022-11-26T05:39:13.853Z,3.79
2022-11-26T05:40:15.506Z,3.76
2022-11-26T05:41:17.080Z,3.73
2022-11-26T05:42:18.707Z,3.74
2022-11-26T05:43:20.346Z,3.78
2022-11-26T05:44:21.978Z,3.78
2022-11-26T05:45:23.565Z,3.77
2022-11-26T05:46:25.258Z,3.75
2022-11-26T05:47:26.846Z,3.75
2022-11-26T05:48:28.470Z,3.74
2022-11-26T05:49:30.259Z,3.75
2022-11-26T05:50:32.660Z,3.73
2022-11-26T05:51:34.457Z,3.68
2022-11-26T05:52:36.155Z,3.64
2022-11-26T05:53:37.956Z,3.61
2022-11-26T05:54:39.947Z,3.57
2022-11-26T05:55:41.710Z,3.59
2022-11-26T05:56:44.127Z,3.55
2022-11-26T05:57:45.784Z,3.53
2022-11-26T05:58:47.342Z,3.52
2022-11-26T05:59:51.821Z,3.57
2022-11-26T06:00:53.416Z,3.55
2022-11-26T06:01:55.307Z,3.58
2022-11-26T06:02:57.040Z,3.54
2022-11-26T06:03:58.772Z,3.54
2022-11-26T06:05:00.352Z,3.55
2022-11-26T06:06:02.607Z,3.52
2022-11-26T06:07:04.293Z,3.51
2022-11-26T06:08:07.029Z,3.49
2022-11-26T06:09:08.696Z,3.48
2022-11-26T06:10:10.925Z,3.43
2022-11-26T06:11:15.501Z,3.43
2022-11-26T06:12:17.153Z,3.40
2022-11-26T06:13:18.769Z,3.38
2022-11-26T06:14:20.417Z,3.35
2022-11-26T06:15:22.035Z,3.33
2022-11-26T06:16:23.712Z,3.33
2022-11-26T06:17:25.309Z,3.31
2022-11-26T06:18:27.048Z,3.29
2022-11-26T06:19:28.604Z,3.27
2022-11-26T06:20:30.236Z,3.27
2022-11-26T06:21:31.940Z,3.28
2022-11-26T06:22:41.890Z,3.33
2022-11-26T06:23:51.655Z,3.38
2022-11-26T06:24:56.133Z,3.43
2022-11-26T06:25:57.777Z,3.47
2022-11-26T06:26:59.435Z,3.55
2022-11-26T06:28:00.998Z,3.65
2022-11-26T06:29:03.026Z,3.75
2022-11-26T06:30:05.801Z,3.84
2022-11-26T06:31:10.026Z,3.94
2022-11-26T06:32:11.676Z,3.99
2022-11-26T06:33:13.613Z,4.03
2022-11-26T06:34:16.003Z,4.06
2022-11-26T06:35:17.619Z,4.11
2022-11-26T06:36:19.186Z,4.13
2022-11-26T06:37:20.919Z,4.15
2022-11-26T06:38:22.446Z,4.17
2022-11-26T06:39:24.035Z,4.19
2022-11-26T06:40:25.617Z,4.21
2022-11-26T06:41:27.172Z,4.22
2022-11-26T06:42:29.702Z,4.24
2022-11-26T06:43:32.150Z,4.26
2022-11-26T06:44:36.857Z,4.27
2022-11-26T06:45:38.719Z,4.31
2022-11-26T06:46:40.768Z,4.32
2022-11-26T06:47:42.409Z,4.28
2022-11-26T06:48:44.160Z,4.35
2022-11-26T06:49:46.050Z,4.38
2022-11-26T06:50:47.596Z,4.40
2022-11-26T06:51:49.176Z,4.43
2022-11-26T06:52:54.701Z,4.45
2022-11-26T06:53:56.332Z,4.48
2022-11-26T06:54:58.021Z,4.49
2022-11-26T06:56:01.125Z,4.50
2022-11-26T06:57:02.692Z,4.52
2022-11-26T06:58:04.299Z,4.54
2022-11-26T06:59:05.906Z,4.56
2022-11-26T07:00:08.245Z,4.60
2022-11-26T07:01:16.933Z,4.63
2022-11-26T07:02:18.510Z,4.66
2022-11-26T07:03:23.928Z,4.69
2022-11-26T07:04:27.184Z,4.68
2022-11-26T07:05:29.124Z,4.65
2022-11-26T07:06:32.919Z,4.75
2022-11-26T07:07:37.895Z,4.78
2022-11-26T07:08:39.498Z,4.80
2022-11-26T07:09:41.318Z,4.84
2022-11-26T07:10:48.680Z,4.88
2022-11-26T07:11:50.757Z,4.92
2022-11-26T07:12:52.321Z,4.92
2022-11-26T07:13:54.643Z,5.00
2022-11-26T07:14:56.195Z,5.00
2022-11-26T07:16:02.833Z,4.99
2022-11-26T07:17:04.656Z,5.00
2022-11-26T07:18:06.300Z,4.98
2022-11-26T07:19:11.753Z,4.98
2022-11-26T07:20:14.254Z,4.97
2022-11-26T07:21:15.922Z,4.98
2022-11-26T07:22:17.635Z,5.02
2022-11-26T07:23:19.235Z,5.00
2022-11-26T07:24:20.832Z,5.04
2022-11-26T07:25:22.439Z,5.13
2022-11-26T07:26:24.365Z,5.18
2022-11-26T07:27:25.945Z,5.19
2022-11-26T07:28:28.800Z,5.20
2022-11-26T07:29:30.551Z,5.21
2022-11-26T07:30:32.074Z,5.10
2022-11-26T07:31:33.945Z,5.22
2022-11-26T07:32:35.632Z,5.24
2022-11-26T07:33:37.564Z,5.24
2022-11-26T07:34:39.365Z,5.24
2022-11-26T07:35:41.190Z,5.26
2022-11-26T07:36:43.511Z,5.28
2022-11-26T07:37:45.222Z,5.33
2022-11-26T07:38:47.070Z,5.36
2022-11-26T07:39:49.516Z,5.41
2022-11-26T07:40:51.045Z,5.44
2022-11-26T07:41:52.623Z,5.47
2022-11-26T07:42:54.294Z,5.47
2022-11-26T07:43:56.122Z,5.47
2022-11-26T07:44:57.671Z,5.49
2022-11-26T07:46:01.958Z,5.51
2022-11-26T07:47:04.471Z,5.51
2022-11-26T07:48:06.411Z,5.52
2022-11-26T07:49:08.370Z,5.55
2022-11-26T07:50:10.415Z,5.60
2022-11-26T07:51:26.033Z,5.60
2022-11-26T07:52:27.633Z,5.62
2022-11-26T07:53:30.853Z,5.63
2022-11-26T07:54:32.472Z,5.64
2022-11-26T07:55:34.176Z,5.69
2022-11-26T07:56:36.151Z,5.73
2022-11-26T07:57:37.866Z,5.74
2022-11-26T07:58:39.564Z,5.84
2022-11-26T07:59:41.602Z,5.92
2022-11-26T08:00:43.342Z,5.93
2022-11-26T08:01:45.081Z,5.98
2022-11-26T08:02:47.041Z,6.06
2022-11-26T08:03:50.252Z,6.19
2022-11-26T08:04:51.923Z,6.30
2022-11-26T08:05:53.457Z,6.38
2022-11-26T08:06:55.007Z,6.47
2022-11-26T08:07:56.776Z,6.64
2022-11-26T08:09:00.299Z,6.75
2022-11-26T08:10:02.351Z,6.79
2022-11-26T08:11:11.285Z,6.81
2022-11-26T08:12:12.834Z,7.09
2022-11-26T08:13:14.401Z,7.14
2022-11-26T08:14:15.944Z,7.24
2022-11-26T08:15:17.954Z,7.40
2022-11-26T08:16:19.611Z,7.52
2022-11-26T08:17:21.529Z,7.44
2022-11-26T08:18:23.088Z,7.29
2022-11-26T08:19:24.782Z,7.17
2022-11-26T08:20:29.018Z,7.20
2022-11-26T08:21:31.000Z,7.16
2022-11-26T08:22:33.453Z,7.06
2022-11-26T08:23:35.465Z,7.08
2022-11-26T08:24:37.749Z,7.13
2022-11-26T08:25:59.236Z,7.17
2022-11-26T08:27:01.234Z,7.26
2022-11-26T08:28:02.850Z,7.33
2022-11-26T08:29:04.508Z,7.35
2022-11-26T08:30:07.307Z,7.40
2022-11-26T08:31:11.285Z,7.42
2022-11-26T08:32:13.053Z,7.48
2022-11-26T08:33:14.906Z,7.50
2022-11-26T08:34:17.595Z,7.49
2022-11-26T08:35:19.214Z,7.43
2022-11-26T08:36:20.837Z,7.48
2022-11-26T08:37:22.736Z,7.50
2022-11-26T08:38:25.092Z,7.54
2022-11-26T08:39:26.950Z,7.53
2022-11-26T08:40:28.453Z,7.59
2022-11-26T08:41:30.112Z,7.61
2022-11-26T08:42:31.727Z,7.66
2022-11-26T08:44:04.519Z,7.70
2022-11-26T08:44:57.088Z,7.71
2022-11-26T08:46:00.317Z,7.79
2022-11-26T08:47:01.971Z,7.86
2022-11-26T08:48:03.874Z,7.88
2022-11-26T08:49:07.362Z,7.96
2022-11-26T08:50:09.665Z,7.93
2022-11-26T08:51:12.557Z,7.87
2022-11-26T08:52:14.132Z,7.76
2022-11-26T08:53:15.722Z,7.83
2022-11-26T08:54:17.412Z,7.81
2022-11-26T08:55:23.699Z,7.79
2022-11-26T08:56:26.020Z,7.82
2022-11-26T08:57:27.728Z,7.89
2022-11-26T08:58:29.525Z,7.97
2022-11-26T08:59:31.170Z,8.06
2022-11-26T09:00:32.839Z,8.08
2022-11-26T09:01:34.978Z,8.06
2022-11-26T09:02:36.613Z,8.16
2022-11-26T09:03:39.067Z,8.22
2022-11-26T09:04:41.792Z,8.26
2022-11-26T09:05:43.427Z,8.23
2022-11-26T09:06:44.994Z,8.21
2022-11-26T09:07:49.161Z,8.19
2022-11-26T09:09:09.517Z,8.22
2022-11-26T09:10:11.614Z,8.39
2022-11-26T09:11:13.234Z,8.55
2022-11-26T09:12:14.856Z,8.66
2022-11-26T09:13:20.891Z,8.67
2022-11-26T09:14:25.103Z,8.73
2022-11-26T09:15:26.726Z,8.71
2022-11-26T09:16:28.863Z,8.72
2022-11-26T09:17:30.714Z,8.70
2022-11-26T09:18:32.301Z,8.70
2022-11-26T09:19:33.976Z,8.74
2022-11-26T09:20:35.545Z,8.67
2022-11-26T09:21:37.212Z,8.77
2022-11-26T09:22:39.018Z,8.80
2022-11-26T09:23:40.705Z,8.88
2022-11-26T09:24:42.392Z,8.87
2022-11-26T09:25:43.995Z,8.89
2022-11-26T09:26:45.971Z,8.89
2022-11-26T09:27:47.551Z,8.95
2022-11-26T09:28:49.436Z,8.98
2022-11-26T09:29:51.054Z,9.01
2022-11-26T09:30:57.758Z,9.07
2022-11-26T09:33:21.195Z,9.11
2022-11-26T09:34:23.298Z,9.21
2022-11-26T09:35:25.234Z,9.28
2022-11-26T09:36:27.395Z,9.32
2022-11-26T09:37:31.775Z,9.37
2022-11-26T09:38:34.335Z,9.42
2022-11-26T09:39:35.970Z,9.35
2022-11-26T09:40:54.065Z,9.45
2022-11-26T09:42:12.594Z,9.54
2022-11-26T09:43:28.200Z,9.66
2022-11-26T09:44:48.306Z,9.79
2022-11-26T09:45:55.775Z,9.93
2022-11-26T09:47:12.523Z,10.01
2022-11-26T09:48:20.176Z,10.09
2022-11-26T09:49:22.627Z,10.09
2022-11-26T09:50:28.893Z,10.16
2022-11-26T09:51:33.085Z,10.30
2022-11-26T09:53:08.952Z,10.36
2022-11-26T09:54:20.610Z,10.43
2022-11-26T09:55:31.967Z,10.45
2022-11-26T09:56:34.161Z,10.43
2022-11-26T09:57:42.013Z,10.47
2022-11-26T09:58:54.554Z,10.41
2022-11-26T09:59:56.636Z,10.29
2022-11-26T10:01:00.059Z,10.20
2022-11-26T10:02:01.827Z,10.24
2022-11-26T10:03:13.263Z,10.27
2022-11-26T10:04:24.373Z,10.16
2022-11-26T10:06:02.411Z,10.17
2022-11-26T10:07:22.346Z,10.14
2022-11-26T10:08:52.039Z,10.13
2022-11-26T10:10:12.660Z,10.13
2022-11-26T10:11:49.335Z,10.20
2022-11-26T10:13:18.387Z,10.24
2022-11-26T10:15:08.722Z,9.85
2022-11-26T10:16:27.479Z,9.80
2022-11-26T10:17:47.403Z,9.96
2022-11-26T10:19:07.550Z,9.92
2022-11-26T10:20:47.007Z,9.93
2022-11-26T10:22:00.136Z,10.03
2022-11-26T10:23:14.048Z,10.15
2022-11-26T10:24:36.177Z,10.21
2022-11-26T10:25:46.522Z,10.24
2022-11-26T10:26:49.488Z,10.32
2022-11-26T10:27:53.830Z,10.37
2022-11-26T10:29:19.936Z,10.39
2022-11-26T10:30:25.460Z,10.39
2022-11-26T10:31:31.245Z,10.43
2022-11-26T10:32:38.986Z,10.48
2022-11-26T10:34:04.933Z,10.61
2022-11-26T10:35:06.956Z,10.71
2022-11-26T10:36:23.193Z,10.88
2022-11-26T10:37:27.459Z,11.20
2022-11-26T10:38:29.154Z,11.45
2022-11-26T10:39:30.817Z,11.65
2022-11-26T10:40:32.671Z,11.97
2022-11-26T10:41:36.994Z,12.24
2022-11-26T10:42:44.445Z,12.21
2022-11-26T10:43:46.084Z,12.02
2022-11-26T10:44:50.280Z,11.84
2022-11-26T10:45:54.767Z,12.06
2022-11-26T10:46:57.962Z,12.17
2022-11-26T10:48:27.329Z,12.22
2022-11-26T10:49:29.955Z,12.13
2022-11-26T10:50:50.562Z,12.11
2022-11-26T10:51:57.862Z,12.17
2022-11-26T10:53:05.058Z,12.12
2022-11-26T10:54:18.648Z,12.13
2022-11-26T10:55:23.443Z,12.21
2022-11-26T10:56:46.844Z,12.39
2022-11-26T10:57:53.552Z,12.72
2022-11-26T10:59:01.951Z,12.77
2022-11-26T11:00:04.375Z,13.02
2022-11-26T11:01:07.297Z,13.31
2022-11-26T11:02:33.380Z,12.79
2022-11-26T11:05:10.284Z,12.26
2022-11-26T11:06:19.351Z,12.63
2022-11-26T11:07:34.598Z,13.07
2022-11-26T11:08:36.321Z,13.10
2022-11-26T11:09:38.319Z,12.97
2022-11-26T11:10:54.046Z,13.47
2022-11-26T11:12:16.476Z,14.59
2022-11-26T11:13:18.213Z,15.96
2022-11-26T11:14:29.158Z,17.29
2022-11-26T11:15:35.389Z,18.17
2022-11-26T11:16:46.034Z,19.38
2022-11-26T11:18:21.979Z,20.29
2022-11-26T11:19:28.233Z,21.69
2022-11-26T11:20:38.739Z,21.45
2022-11-26T11:21:48.070Z,20.79
2022-11-26T11:22:58.395Z,20.80
2022-11-26T11:24:09.349Z,21.31
2022-11-26T11:25:32.463Z,21.52
2022-11-26T11:26:46.174Z,21.29
2022-11-26T11:27:48.890Z,20.61
2022-11-26T11:28:55.548Z,19.44
2022-11-26T11:30:01.982Z,19.00
2022-11-26T11:31:10.949Z,18.36
2022-11-26T11:32:39.239Z,17.88
2022-11-26T11:33:41.370Z,17.48
2022-11-26T11:34:43.124Z,16.98
2022-11-26T11:35:44.846Z,16.52
2022-11-26T11:37:18.657Z,16.27
2022-11-26T11:38:25.701Z,16.08
2022-11-26T11:39:35.449Z,16.16
2022-11-26T11:40:42.307Z,16.45
2022-11-26T11:41:48.975Z,17.04
2022-11-26T11:42:54.509Z,17.81
2022-11-26T11:44:14.012Z,18.70
2022-11-26T11:45:28.845Z,19.05
2022-11-26T11:47:08.092Z,19.05
2022-11-26T11:48:15.554Z,19.85
2022-11-26T11:49:42.419Z,20.32
2022-11-26T11:50:58.231Z,20.59
2022-11-26T11:52:22.153Z,21.10
2022-11-26T11:53:42.245Z,21.82
2022-11-26T11:55:02.178Z,22.69
2022-11-26T11:56:22.240Z,23.35
2022-11-26T11:57:42.086Z,23.57
2022-11-26T11:59:05.500Z,24.12
2022-11-26T12:00:14.155Z,24.42
2022-11-26T12:01:27.816Z,24.66
2022-11-26T12:02:50.956Z,24.97
2022-11-26T12:04:10.431Z,25.14
2022-11-26T12:05:36.751Z,24.73
2022-11-26T12:06:40.146Z,24.87
2022-11-26T12:07:53.968Z,25.04
2022-11-26T12:09:24.596Z,24.52
2022-11-26T12:10:49.044Z,24.66
2022-11-26T12:12:00.779Z,24.82
2022-11-26T12:13:06.018Z,24.91
2022-11-26T12:14:17.758Z,24.56
2022-11-26T12:15:33.997Z,24.40
2022-11-26T12:16:42.502Z,24.53
2022-11-26T12:17:46.876Z,24.35
2022-11-26T12:19:09.675Z,24.12
2022-11-26T12:20:36.538Z,23.99
2022-11-26T12:21:51.543Z,24.19
2022-11-26T12:23:24.924Z,23.91
2022-11-26T12:24:54.406Z,23.68
2022-11-26T12:26:12.985Z,23.46
2022-11-26T12:27:51.474Z,22.45
2022-11-26T12:29:06.664Z,22.78
2022-11-26T12:30:17.131Z,22.48
2022-11-26T12:31:37.354Z,22.80
2022-11-26T12:32:51.012Z,22.72
2022-11-26T12:33:59.601Z,22.50
2022-11-26T12:35:12.346Z,21.08
2022-11-26T12:36:31.848Z,19.94
2022-11-26T12:37:40.478Z,19.97
2022-11-26T12:38:53.695Z,20.63
2022-11-26T12:40:29.065Z,20.88
2022-11-26T12:41:49.688Z,20.85
2022-11-26T12:43:20.621Z,20.79
2022-11-26T12:44:32.661Z,20.52
2022-11-26T12:46:11.062Z,20.52
2022-11-26T12:47:21.781Z,20.26
2022-11-26T12:48:54.761Z,20.99
2022-11-26T12:50:05.770Z,20.95
2022-11-26T12:51:25.551Z,19.79
2022-11-26T12:52:52.157Z,19.54
2022-11-26T12:54:05.877Z,19.39
2022-11-26T12:55:35.637Z,19.30
2022-11-26T12:56:59.653Z,18.85
2022-11-26T12:58:24.206Z,18.72
2022-11-26T12:59:40.930Z,18.32
2022-11-26T13:00:43.102Z,18.16
2022-11-26T13:01:44.978Z,18.00
2022-11-26T13:02:51.149Z,18.90
2022-11-26T13:04:08.476Z,19.56
2022-11-26T13:05:21.997Z,20.26
2022-11-26T13:06:35.734Z,20.16
2022-11-26T13:08:15.592Z,20.53
2022-11-26T13:09:45.143Z,20.52
2022-11-26T13:11:14.598Z,20.45
2022-11-26T13:12:29.772Z,19.88
2022-11-26T13:13:40.644Z,20.17
2022-11-26T13:14:54.299Z,20.41
2022-11-26T13:16:08.075Z,19.97
2022-11-26T13:17:16.760Z,20.09
2022-11-26T13:18:31.898Z,20.22
2022-11-26T13:19:42.025Z,19.91
2022-11-26T13:21:19.277Z,19.31
2022-11-26T13:22:48.852Z,19.22
2022-11-26T13:24:02.367Z,18.90
2022-11-26T13:25:12.885Z,19.21
2022-11-26T13:26:36.941Z,19.04
2022-11-26T13:28:00.791Z,18.07
2022-11-26T13:29:38.615Z,17.23
2022-11-26T13:31:04.429Z,15.98
2022-11-26T13:32:58.061Z,15.07
2022-11-26T13:34:33.701Z,14.95
2022-11-26T13:36:12.998Z,14.18
2022-11-26T13:37:36.130Z,13.90
2022-11-26T13:39:03.547Z,13.73
2022-11-26T13:40:37.601Z,13.23
2022-11-26T13:41:58.049Z,12.97
2022-11-26T13:43:16.943Z,12.76
2022-11-26T13:44:47.272Z,12.71
2022-11-26T13:46:03.265Z,12.64
2022-11-26T13:47:26.284Z,12.60
2022-11-26T13:48:42.745Z,12.51
2022-11-26T13:49:58.588Z,12.52
2022-11-26T13:51:32.615Z,12.45
2022-11-26T13:53:02.135Z,12.26
2022-11-26T13:54:15.871Z,12.28
2022-11-26T13:55:24.301Z,12.23
2022-11-26T13:56:32.150Z,12.23
2022-11-26T13:57:56.926Z,12.15
2022-11-26T13:59:03.257Z,12.04
2022-11-26T14:00:05.824Z,11.95
2022-11-26T14:01:28.431Z,11.78
2022-11-26T14:02:33.296Z,11.61
2022-11-26T14:03:49.155Z,11.48
2022-11-26T14:04:53.499Z,11.41
2022-11-26T14:05:57.384Z,11.37
2022-11-26T14:07:04.809Z,11.25
2022-11-26T14:08:37.526Z,11.15
2022-11-26T14:09:42.195Z,11.11
2022-11-26T14:10:43.903Z,11.00
2022-11-26T14:11:45.482Z,10.92
2022-11-26T14:13:02.691Z,10.80
2022-11-26T14:14:26.190Z,10.71
2022-11-26T14:15:42.983Z,10.64
2022-11-26T14:17:02.984Z,10.55
2022-11-26T14:18:05.271Z,10.41
2022-11-26T14:19:06.932Z,10.38
2022-11-26T14:20:09.397Z,10.31
2022-11-26T14:21:12.911Z,10.24
2022-11-26T14:22:20.703Z,10.16
2022-11-26T14:23:44.647Z,10.11
2022-11-26T14:24:49.414Z,10.03
2022-11-26T14:25:51.080Z,10.04
2022-11-26T14:26:53.249Z,10.00
2022-11-26T14:27:55.811Z,10.02
2022-11-26T14:29:18.035Z,10.05
2022-11-26T14:30:22.475Z,10.08
2022-11-26T14:31:32.538Z,10.05
2022-11-26T14:32:39.721Z,10.04
2022-11-26T14:33:45.277Z,9.98
2022-11-26T14:34:53.087Z,9.80
2022-11-26T14:35:56.799Z,9.81
2022-11-26T14:37:00.282Z,9.72
2022-11-26T14:38:05.236Z,9.67
2022-11-26T14:39:09.982Z,9.63
2022-11-26T14:40:23.555Z,9.58
2022-11-26T14:41:25.303Z,9.59
2022-11-26T14:42:27.967Z,9.59
2022-11-26T14:43:29.808Z,9.56
2022-11-26T14:44:31.484Z,9.57
2022-11-26T14:45:33.391Z,9.62
2022-11-26T14:46:35.872Z,9.59
2022-11-26T14:47:37.565Z,9.58
2022-11-26T14:48:48.217Z,9.56
2022-11-26T14:49:57.325Z,9.48
2022-11-26T14:51:01.237Z,9.42